Time;durP1;ratioP1;P1;durP2;ratioP2;P2;SDS_P1;SDS_P2;PMS_P1;PMS_P2;Temp;Humidity;BMP_temperature;BMP_pressure;BME280_temperature;BME280_humidity;BME280_pressure;Samples;Min_cycle;Max_cycle;Signal;HPM_P1;HPM_P2
2023/02/08 00:00:59;;;;;;;1.50;0.53;;;-4.50;82.40;;;;;;5001147;28;20232;-76
2023/02/08 00:03:26;;;;;;;0.40;0.23;;;-4.50;82.60;;;;;;5007829;28;20680;-76
2023/02/08 00:05:52;;;;;;;1.43;0.80;;;-4.50;82.60;;;;;;5004953;28;20312;-76
2023/02/08 00:08:18;;;;;;;0.47;0.47;;;-4.60;82.60;;;;;;5007515;28;20741;-76
2023/02/08 00:10:43;;;;;;;0.87;0.87;;;-4.50;82.50;;;;;;5007321;28;20673;-76
2023/02/08 00:13:09;;;;;;;0.30;0.30;;;-4.50;82.30;;;;;;5012138;28;20223;-76
2023/02/08 00:15:40;;;;;;;0.33;0.33;;;-4.50;82.20;;;;;;5007253;28;20716;-76
2023/02/08 00:18:06;;;;;;;1.17;0.37;;;-4.40;82.20;;;;;;5006631;28;20194;-76
2023/02/08 00:20:31;;;;;;;1.37;0.70;;;-4.40;82.30;;;;;;5008738;28;20191;-76
2023/02/08 00:22:57;;;;;;;0.67;0.60;;;-4.40;81.90;;;;;;5007483;28;20192;-76
2023/02/08 00:25:23;;;;;;;0.87;0.30;;;-4.30;81.80;;;;;;5037392;28;20303;-76
2023/02/08 00:27:48;;;;;;;0.67;0.67;;;-4.40;81.80;;;;;;5008024;28;20946;-76
2023/02/08 00:30:14;;;;;;;0.63;0.50;;;-4.40;81.90;;;;;;5010277;28;20678;-76
2023/02/08 00:32:40;;;;;;;0.90;0.80;;;-4.40;81.70;;;;;;5009114;28;20195;-76
2023/02/08 00:35:06;;;;;;;0.50;0.50;;;-4.30;81.90;;;;;;5009904;28;20191;-76
2023/02/08 00:37:31;;;;;;;0.73;0.73;;;-4.30;81.60;;;;;;5008369;28;20204;-76
2023/02/08 00:40:00;;;;;;;2.63;1.03;;;-4.30;81.40;;;;;;5006707;28;20247;-76
2023/02/08 00:42:26;;;;;;;0.43;0.43;;;-4.20;81.50;;;;;;5007093;28;20267;-76
2023/02/08 00:44:52;;;;;;;0.50;0.50;;;-4.30;81.30;;;;;;5007201;28;20374;-76
2023/02/08 00:47:17;;;;;;;0.83;0.77;;;-4.20;81.40;;;;;;5013045;28;20766;-76
2023/02/08 00:49:43;;;;;;;3.47;0.97;;;-4.20;81.40;;;;;;5007448;28;20368;-76
2023/02/08 00:52:08;;;;;;;1.80;1.00;;;-4.10;81.40;;;;;;5010475;28;20188;-76
2023/02/08 00:54:34;;;;;;;3.23;0.87;;;-4.10;81.20;;;;;;5011538;28;20177;-75
2023/02/08 00:57:00;;;;;;;0.40;0.40;;;-4.10;81.20;;;;;;5007482;28;20185;-77
2023/02/08 00:59:26;;;;;;;0.80;0.80;;;-4.00;81.10;;;;;;5007685;28;20207;-76
2023/02/08 01:01:52;;;;;;;0.67;0.67;;;-4.00;81.10;;;;;;5008523;28;20776;-76
2023/02/08 01:04:17;;;;;;;0.77;0.77;;;-4.00;81.10;;;;;;5010443;28;20188;-76
2023/02/08 01:06:43;;;;;;;0.53;0.53;;;-4.10;81.30;;;;;;5006378;28;20191;-76
2023/02/08 01:09:09;;;;;;;0.63;0.63;;;-4.00;81.50;;;;;;5005581;28;20191;-75
2023/02/08 01:11:34;;;;;;;1.23;1.13;;;-4.00;81.30;;;;;;5000475;28;20200;-76
2023/02/08 01:14:00;;;;;;;0.63;0.63;;;-4.00;81.60;;;;;;5005279;28;20184;-76
2023/02/08 01:16:29;;;;;;;0.27;0.27;;;-4.00;81.30;;;;;;5006707;28;20254;-76
2023/02/08 01:18:56;;;;;;;0.80;0.80;;;-4.00;81.50;;;;;;5016849;28;20192;-75
2023/02/08 01:21:25;;;;;;;4.23;1.20;;;-4.10;81.60;;;;;;5010079;28;20675;-76
2023/02/08 01:23:51;;;;;;;0.67;0.67;;;-4.00;81.80;;;;;;5007234;28;20193;-76
2023/02/08 01:26:18;;;;;;;0.50;0.50;;;-4.00;81.60;;;;;;5005172;28;20239;-76
2023/02/08 01:28:44;;;;;;;0.47;0.40;;;-4.00;81.70;;;;;;5007320;28;20183;-76
2023/02/08 01:31:15;;;;;;;0.53;0.33;;;-4.00;81.70;;;;;;5008362;28;20288;-76
2023/02/08 01:33:41;;;;;;;0.83;0.83;;;-4.00;81.70;;;;;;5010392;28;20274;-76
2023/02/08 01:36:07;;;;;;;1.17;0.97;;;-4.00;81.80;;;;;;5006347;28;20192;-76
2023/02/08 01:38:34;;;;;;;0.87;0.77;;;-4.00;81.90;;;;;;5016030;28;20282;-76
2023/02/08 01:41:00;;;;;;;1.50;0.93;;;-4.00;81.90;;;;;;5006057;28;20646;-76
2023/02/08 01:43:28;;;;;;;0.70;0.70;;;-4.00;82.00;;;;;;5010554;28;20191;-76
2023/02/08 01:45:54;;;;;;;8.00;1.20;;;-4.00;82.00;;;;;;5009489;28;20664;-76
2023/02/08 01:48:20;;;;;;;1.10;1.00;;;-4.00;82.00;;;;;;5010690;28;20306;-76
2023/02/08 01:51:00;;;;;;;1.10;1.10;;;-4.00;82.10;;;;;;5012015;28;20242;-76
2023/02/08 01:53:28;;;;;;;0.60;0.60;;;-4.00;81.90;;;;;;5009234;28;20415;-76
2023/02/08 01:55:59;;;;;;;0.53;0.53;;;-4.00;81.80;;;;;;5005339;28;20184;-75
2023/02/08 01:58:27;;;;;;;2.37;1.33;;;-4.00;82.00;;;;;;5000430;28;20183;-76
2023/02/08 02:00:53;;;;;;;2.13;1.07;;;-4.00;82.20;;;;;;4997900;28;20723;-75
2023/02/08 02:03:21;;;;;;;0.70;0.70;;;-4.00;82.20;;;;;;5001624;28;20719;-76
2023/02/08 02:05:51;;;;;;;1.07;1.07;;;-4.00;82.30;;;;;;4999836;28;20310;-76
2023/02/08 02:08:17;;;;;;;0.33;0.33;;;-4.00;82.50;;;;;;5001473;28;20576;-76
2023/02/08 02:10:43;;;;;;;4.77;0.93;;;-4.00;82.50;;;;;;5004457;28;20658;-76
2023/02/08 02:13:16;;;;;;;1.00;1.00;;;-3.90;82.40;;;;;;5007320;28;20264;-76
2023/02/08 02:15:43;;;;;;;0.90;0.90;;;-3.90;82.10;;;;;;5004110;28;20183;-75
2023/02/08 02:18:10;;;;;;;0.20;0.20;;;-3.90;82.20;;;;;;5019251;28;20242;-76
2023/02/08 02:21:00;;;;;;;1.00;0.60;;;-3.90;82.30;;;;;;5013505;28;20184;-76
2023/02/08 02:23:37;;;;;;;0.63;0.63;;;-4.00;82.50;;;;;;5005242;28;20266;-75
2023/02/08 02:26:26;;;;;;;0.73;0.73;;;-4.00;82.70;;;;;;5005108;28;20216;-75
2023/02/08 02:29:18;;;;;;;1.23;1.10;;;-4.00;82.90;;;;;;5005581;28;20214;-75
2023/02/08 02:32:21;;;;;;;0.40;0.40;;;-4.00;83.20;;;;;;5007728;28;20250;-75
2023/02/08 02:34:51;;;;;;;1.07;1.07;;;-4.00;83.70;;;;;;5018208;28;20190;-75
2023/02/08 02:37:40;;;;;;;0.37;0.37;;;-4.10;84.10;;;;;;5008066;28;20173;-76
2023/02/08 02:40:05;;;;;;;2.57;1.13;;;-4.10;84.30;;;;;;4981846;28;20203;-75
2023/02/08 02:45:47;;;;;;;1.37;0.70;;;-4.10;84.60;;;;;;4986417;28;20277;-76
2023/02/08 02:48:21;;;;;;;0.73;0.73;;;-4.10;84.90;;;;;;4982394;28;20198;-75
2023/02/08 02:50:57;;;;;;;2.50;1.57;;;-4.10;85.00;;;;;;4984437;28;20207;-75
2023/02/08 02:53:32;;;;;;;2.10;1.03;;;-4.10;84.70;;;;;;4985409;28;20208;-75
2023/02/08 02:56:03;;;;;;;0.23;0.23;;;-4.10;84.50;;;;;;4987190;28;20202;-75
2023/02/08 02:58:31;;;;;;;1.27;1.17;;;-4.10;84.30;;;;;;4981316;28;20202;-75
2023/02/08 03:00:58;;;;;;;0.70;0.63;;;-4.10;84.70;;;;;;4982178;28;20204;-75
2023/02/08 03:03:27;;;;;;;0.83;0.83;;;-4.10;84.90;;;;;;4983648;28;20189;-75
2023/02/08 03:05:59;;;;;;;0.50;0.40;;;-4.10;85.00;;;;;;4986367;28;20523;-75
2023/02/08 03:08:27;;;;;;;0.70;0.70;;;-4.20;85.30;;;;;;4977845;28;20194;-75
2023/02/08 03:11:07;;;;;;;0.70;0.70;;;-4.20;85.50;;;;;;4983851;28;20244;-76
2023/02/08 03:14:03;;;;;;;0.77;0.60;;;-4.20;85.60;;;;;;4987164;28;20195;-76
2023/02/08 03:16:55;;;;;;;0.77;0.77;;;-4.10;85.90;;;;;;4955975;28;20930;-76
2023/02/08 03:19:38;;;;;;;4.40;0.63;;;-4.20;86.20;;;;;;4986238;28;20199;-75
2023/02/08 03:22:10;;;;;;;0.63;0.30;;;-4.10;86.70;;;;;;4981313;28;20192;-75
2023/02/08 03:24:58;;;;;;;0.97;0.93;;;-4.10;86.50;;;;;;4987131;28;20196;-75
2023/02/08 03:27:29;;;;;;;0.60;0.60;;;-4.10;86.40;;;;;;4983728;28;20212;-76
2023/02/08 03:30:06;;;;;;;0.53;0.33;;;-4.10;86.50;;;;;;4985912;28;20195;-76
2023/02/08 03:32:55;;;;;;;1.03;0.80;;;-4.10;86.70;;;;;;4986181;28;20191;-76
2023/02/08 03:35:43;;;;;;;0.47;0.47;;;-4.10;87.00;;;;;;4985190;28;20257;-76
2023/02/08 03:38:14;;;;;;;0.97;0.97;;;-4.20;87.00;;;;;;4984189;28;21010;-75
2023/02/08 03:40:47;;;;;;;0.30;0.30;;;-4.20;87.10;;;;;;4985293;28;20202;-76
2023/02/08 03:43:27;;;;;;;0.60;0.43;;;-4.20;87.20;;;;;;4979779;28;20179;-75
2023/02/08 03:46:06;;;;;;;1.30;1.13;;;-4.30;87.30;;;;;;4993773;28;20297;-75
2023/02/08 03:48:35;;;;;;;0.60;0.60;;;-4.30;87.40;;;;;;4997007;28;20285;-75
2023/02/08 03:51:02;;;;;;;1.33;1.00;;;-4.30;87.40;;;;;;4995568;28;20188;-74
2023/02/08 03:53:36;;;;;;;2.07;0.90;;;-4.40;87.60;;;;;;5023227;28;20199;-75
2023/02/08 03:56:07;;;;;;;0.60;0.60;;;-4.40;87.60;;;;;;5025153;28;20202;-76
2023/02/08 03:58:57;;;;;;;0.57;0.57;;;-4.40;87.60;;;;;;5023577;28;20178;-76
2023/02/08 04:01:29;;;;;;;1.80;1.70;;;-4.50;87.90;;;;;;5018337;28;20269;-75
2023/02/08 04:03:58;;;;;;;1.43;0.60;;;-4.50;88.10;;;;;;5036904;28;20201;-76
2023/02/08 04:06:25;;;;;;;1.40;0.73;;;-4.50;88.10;;;;;;5021296;28;20218;-77
2023/02/08 04:08:50;;;;;;;0.47;0.30;;;-4.50;88.20;;;;;;5016540;28;20478;-74
2023/02/08 04:11:16;;;;;;;1.20;1.00;;;-4.60;88.10;;;;;;5020538;28;20222;-76
2023/02/08 04:13:42;;;;;;;0.63;0.63;;;-4.60;88.10;;;;;;5021697;28;20188;-75
2023/02/08 04:16:12;;;;;;;0.30;0.30;;;-4.60;88.10;;;;;;5021573;28;20197;-75
2023/02/08 04:18:37;;;;;;;2.93;1.30;;;-4.70;88.40;;;;;;5017607;28;20645;-75
2023/02/08 04:21:04;;;;;;;0.83;0.83;;;-4.70;88.50;;;;;;5023213;28;20186;-75
2023/02/08 04:23:29;;;;;;;0.80;0.80;;;-4.80;88.70;;;;;;5027600;28;20265;-75
2023/02/08 04:25:55;;;;;;;1.17;0.97;;;-4.80;88.70;;;;;;5021619;28;20249;-76
2023/02/08 04:28:21;;;;;;;1.13;1.03;;;-4.70;88.30;;;;;;5021982;28;20285;-76
2023/02/08 04:30:46;;;;;;;3.13;1.30;;;-4.80;88.30;;;;;;5022547;28;20246;-76
2023/02/08 04:33:13;;;;;;;3.20;0.83;;;-4.80;88.30;;;;;;5020502;28;20179;-75
2023/02/08 04:35:40;;;;;;;0.40;0.40;;;-4.80;88.20;;;;;;5018933;28;20183;-76
2023/02/08 04:38:06;;;;;;;2.20;0.90;;;-4.80;88.20;;;;;;5023541;28;20322;-75
2023/02/08 04:40:32;;;;;;;1.00;1.00;;;-4.80;88.20;;;;;;5024978;28;20183;-75
2023/02/08 04:42:58;;;;;;;0.80;0.80;;;-4.80;88.30;;;;;;5020896;28;20682;-76
2023/02/08 04:45:25;;;;;;;1.20;0.90;;;-4.90;88.40;;;;;;5015338;28;20273;-75
2023/02/08 04:47:51;;;;;;;0.70;0.70;;;-4.90;88.30;;;;;;5013334;28;20638;-75
2023/02/08 04:50:17;;;;;;;0.60;0.60;;;-5.00;88.20;;;;;;5005763;28;20188;-74
2023/02/08 04:52:43;;;;;;;1.13;0.53;;;-5.00;88.20;;;;;;5007355;28;20313;-75
2023/02/08 04:55:08;;;;;;;1.87;1.10;;;-5.00;88.40;;;;;;5008504;28;20196;-75
2023/02/08 04:57:34;;;;;;;0.30;0.30;;;-5.10;88.40;;;;;;5008642;28;20278;-74
2023/02/08 04:59:59;;;;;;;0.93;0.93;;;-5.10;88.50;;;;;;5006660;28;20197;-77
2023/02/08 05:02:25;;;;;;;0.60;0.60;;;-5.20;88.60;;;;;;5006668;28;20670;-79
2023/02/08 05:04:51;;;;;;;0.13;0.13;;;-5.20;88.70;;;;;;5006481;28;20706;-77
2023/02/08 05:07:16;;;;;;;0.60;0.60;;;-5.20;88.80;;;;;;5005819;28;20274;-78
2023/02/08 05:09:42;;;;;;;0.83;0.57;;;-5.20;88.80;;;;;;5007637;28;20261;-78
2023/02/08 05:12:08;;;;;;;0.53;0.53;;;-5.30;89.00;;;;;;5017532;28;20185;-78
2023/02/08 05:14:33;;;;;;;0.53;0.53;;;-5.30;89.20;;;;;;5004875;28;20183;-78
2023/02/08 05:16:59;;;;;;;0.47;0.47;;;-5.20;89.40;;;;;;5006858;28;20182;-78
2023/02/08 05:19:25;;;;;;;1.33;0.80;;;-5.20;89.40;;;;;;5006816;28;20170;-78
2023/02/08 05:21:51;;;;;;;2.13;0.73;;;-5.20;89.40;;;;;;5011645;28;20202;-78
2023/02/08 05:24:16;;;;;;;0.87;0.87;;;-5.20;89.40;;;;;;5020148;28;20343;-79
2023/02/08 05:26:42;;;;;;;0.60;0.60;;;-5.20;89.30;;;;;;5007704;28;20202;-74
2023/02/08 05:29:08;;;;;;;0.70;0.53;;;-5.10;89.10;;;;;;5005353;28;20719;-77
2023/02/08 05:31:34;;;;;;;0.73;0.73;;;-5.10;89.10;;;;;;5006778;28;20689;-77
2023/02/08 05:34:00;;;;;;;0.50;0.50;;;-5.10;89.00;;;;;;5014628;28;20723;-76
2023/02/08 05:36:25;;;;;;;0.70;0.70;;;-5.10;88.80;;;;;;5005818;28;20216;-76
2023/02/08 05:38:52;;;;;;;0.10;0.10;;;-5.10;88.50;;;;;;5004611;28;20277;-76
2023/02/08 05:41:18;;;;;;;0.40;0.40;;;-5.20;88.60;;;;;;5013385;28;20195;-76
2023/02/08 05:43:44;;;;;;;1.13;0.93;;;-5.20;88.60;;;;;;5009041;28;20192;-76
2023/02/08 05:46:10;;;;;;;2.23;0.47;;;-5.30;88.40;;;;;;5005093;28;21186;-76
2023/02/08 05:48:36;;;;;;;1.07;0.97;;;-5.30;88.70;;;;;;5005327;28;20262;-77
2023/02/08 05:51:02;;;;;;;0.80;0.57;;;-5.40;88.80;;;;;;5005265;28;20191;-77
2023/02/08 05:53:28;;;;;;;0.60;0.60;;;-5.40;88.90;;;;;;5005861;28;20187;-75
2023/02/08 05:55:58;;;;;;;1.10;0.97;;;-5.40;89.00;;;;;;5005993;28;20193;-76
2023/02/08 05:58:24;;;;;;;0.30;0.30;;;-5.40;89.20;;;;;;5013067;28;20189;-75
2023/02/08 06:00:50;;;;;;;1.83;0.77;;;-5.30;89.50;;;;;;5020914;28;20246;-75
2023/02/08 06:03:16;;;;;;;0.73;0.73;;;-5.30;89.60;;;;;;5007681;28;20207;-76
2023/02/08 06:05:42;;;;;;;1.10;0.67;;;-5.20;89.10;;;;;;5007312;28;20242;-75
2023/02/08 06:08:08;;;;;;;0.97;0.97;;;-5.10;88.50;;;;;;5004083;28;20219;-76
2023/02/08 06:10:34;;;;;;;1.13;0.83;;;-5.10;88.30;;;;;;5005465;28;20179;-76
2023/02/08 06:13:01;;;;;;;0.50;0.50;;;-5.00;87.90;;;;;;5003796;28;20182;-76
2023/02/08 06:15:27;;;;;;;0.80;0.80;;;-4.90;87.80;;;;;;5013555;28;20249;-75
2023/02/08 06:17:52;;;;;;;0.70;0.70;;;-4.90;87.60;;;;;;5017696;28;20178;-76
2023/02/08 06:20:18;;;;;;;0.70;0.67;;;-4.80;87.20;;;;;;5005480;28;20796;-76
2023/02/08 06:22:44;;;;;;;0.47;0.47;;;-4.70;86.80;;;;;;5005140;28;20194;-76
2023/02/08 06:25:10;;;;;;;0.63;0.63;;;-4.60;86.60;;;;;;5005406;28;20277;-76
2023/02/08 06:27:35;;;;;;;0.60;0.60;;;-4.50;86.30;;;;;;5018320;28;20187;-76
2023/02/08 06:30:01;;;;;;;1.50;1.00;;;-4.50;86.00;;;;;;5016387;28;20240;-76
2023/02/08 06:32:27;;;;;;;1.20;0.90;;;-4.50;86.00;;;;;;4993095;28;20590;-76
2023/02/08 06:34:53;;;;;;;0.50;0.50;;;-4.40;86.10;;;;;;5005143;28;20215;-76
2023/02/08 06:37:19;;;;;;;1.57;1.47;;;-4.40;85.80;;;;;;5005028;28;20183;-74
2023/02/08 06:39:44;;;;;;;1.23;0.90;;;-4.40;85.60;;;;;;5005327;28;20258;-74
2023/02/08 06:42:10;;;;;;;2.33;1.33;;;-4.40;85.90;;;;;;5006286;28;20187;-74
2023/02/08 06:44:36;;;;;;;2.37;1.53;;;-4.30;85.90;;;;;;5015680;28;20249;-74
2023/02/08 06:47:02;;;;;;;0.40;0.40;;;-4.20;85.40;;;;;;5006106;28;20259;-74
2023/02/08 06:49:28;;;;;;;0.53;0.53;;;-4.20;85.20;;;;;;5015419;28;20188;-74
2023/02/08 06:51:53;;;;;;;0.90;0.67;;;-4.10;85.20;;;;;;4992114;28;20191;-74
2023/02/08 06:54:19;;;;;;;0.90;0.83;;;-4.10;84.70;;;;;;5003277;28;20300;-75
2023/02/08 06:56:45;;;;;;;3.70;1.00;;;-4.00;84.60;;;;;;5004861;28;20257;-74
2023/02/08 06:59:10;;;;;;;0.97;0.97;;;-4.00;84.60;;;;;;5004959;28;20276;-74
2023/02/08 07:01:36;;;;;;;1.20;1.17;;;-3.90;84.70;;;;;;5004984;28;20231;-75
2023/02/08 07:04:02;;;;;;;0.57;0.57;;;-3.70;84.40;;;;;;5005644;28;20196;-76
2023/02/08 07:06:27;;;;;;;2.67;1.63;;;-3.50;84.90;;;;;;5004522;28;20635;-75
2023/02/08 07:08:53;;;;;;;3.03;1.77;;;-3.20;85.10;;;;;;5003871;28;20174;-75
2023/02/08 07:11:20;;;;;;;0.57;0.57;;;-2.70;84.40;;;;;;5005878;28;20180;-75
2023/02/08 07:13:49;;;;;;;0.77;0.77;;;-2.10;83.00;;;;;;5023998;28;20248;-76
2023/02/08 07:16:16;;;;;;;2.43;2.23;;;-1.40;80.10;;;;;;5008553;28;20956;-75
2023/02/08 07:18:42;;;;;;;1.33;0.63;;;-0.70;78.90;;;;;;5003390;28;20181;-75
2023/02/08 07:21:09;;;;;;;1.87;1.77;;;0.00;78.80;;;;;;5000516;28;20187;-75
2023/02/08 07:23:35;;;;;;;1.20;1.10;;;0.80;76.80;;;;;;5004786;28;20173;-75
2023/02/08 07:26:06;;;;;;;2.03;1.77;;;1.60;75.70;;;;;;5004069;28;20220;-75
2023/02/08 07:28:31;;;;;;;3.30;2.73;;;2.30;74.50;;;;;;5014395;28;20204;-75
2023/02/08 07:30:57;;;;;;;5.00;1.90;;;3.00;72.40;;;;;;4990646;28;20217;-75
2023/02/08 07:33:24;;;;;;;2.97;2.63;;;3.50;69.20;;;;;;4998264;28;20264;-75
2023/02/08 07:35:49;;;;;;;7.80;3.83;;;3.60;66.50;;;;;;5004436;28;20188;-75
2023/02/08 07:38:15;;;;;;;4.47;3.80;;;3.60;66.50;;;;;;5004254;28;20231;-75
2023/02/08 07:40:41;;;;;;;6.50;3.63;;;3.40;65.20;;;;;;5004188;28;20177;-75
2023/02/08 07:43:06;;;;;;;8.67;4.67;;;3.20;65.60;;;;;;5013413;28;20195;-75
2023/02/08 07:45:32;;;;;;;5.47;3.37;;;3.20;65.10;;;;;;5010576;28;20801;-75
2023/02/08 07:47:58;;;;;;;5.00;3.97;;;3.40;66.30;;;;;;5017883;28;20272;-76
2023/02/08 07:50:24;;;;;;;6.03;3.90;;;4.00;67.50;;;;;;5005157;28;20177;-76
2023/02/08 07:52:50;;;;;;;4.40;4.17;;;4.60;67.30;;;;;;5004533;28;20181;-77
2023/02/08 07:55:16;;;;;;;5.53;4.20;;;5.30;66.90;;;;;;5004278;28;20185;-77
2023/02/08 07:57:46;;;;;;;4.23;3.80;;;6.10;66.70;;;;;;4995406;28;20205;-76
2023/02/08 08:00:13;;;;;;;6.00;4.43;;;6.80;65.70;;;;;;5004949;28;20200;-76
2023/02/08 08:02:39;;;;;;;7.73;4.93;;;7.40;61.90;;;;;;5006543;28;20181;-76
2023/02/08 08:05:05;;;;;;;10.07;5.30;;;7.90;60.90;;;;;;5007811;28;20209;-76
2023/02/08 08:07:30;;;;;;;6.13;4.33;;;8.30;60.10;;;;;;5008276;28;20611;-76
2023/02/08 08:09:56;;;;;;;9.33;5.47;;;8.70;57.70;;;;;;5020680;28;20181;-76
2023/02/08 08:12:23;;;;;;;11.20;5.90;;;8.60;54.00;;;;;;4999483;28;20247;-76
2023/02/08 08:14:49;;;;;;;10.87;5.83;;;8.00;53.70;;;;;;5005866;28;20188;-77
2023/02/08 08:17:16;;;;;;;9.80;5.57;;;7.90;55.50;;;;;;5007747;28;20195;-76
2023/02/08 08:19:41;;;;;;;5.23;4.43;;;8.20;56.40;;;;;;5010172;28;20198;-76
2023/02/08 08:22:07;;;;;;;8.77;5.47;;;8.40;54.80;;;;;;5012748;28;20603;-76
2023/02/08 08:24:34;;;;;;;8.23;6.07;;;8.70;55.00;;;;;;5007450;28;20686;-76
2023/02/08 08:27:01;;;;;;;10.50;5.20;;;8.70;53.80;;;;;;5005965;28;20242;-75
2023/02/08 08:29:27;;;;;;;10.93;6.13;;;8.70;54.30;;;;;;5007194;28;20176;-76
2023/02/08 08:31:53;;;;;;;10.10;6.27;;;8.80;54.50;;;;;;5007735;28;20191;-76
2023/02/08 08:34:18;;;;;;;8.90;6.25;;;9.10;55.00;;;;;;5011507;28;20990;-76
2023/02/08 08:36:44;;;;;;;9.77;5.78;;;9.50;55.60;;;;;;5017201;28;20177;-76
2023/02/08 08:39:10;;;;;;;9.75;5.78;;;10.20;56.60;;;;;;4993580;28;20185;-75
2023/02/08 08:41:36;;;;;;;8.32;6.47;;;10.80;56.00;;;;;;5007969;28;20188;-74
2023/02/08 08:44:02;;;;;;;11.50;6.88;;;11.50;54.60;;;;;;5007399;28;20181;-75
2023/02/08 08:46:28;;;;;;;6.10;5.45;;;12.10;51.70;;;;;;4997386;28;20324;-77
2023/02/08 08:48:53;;;;;;;9.80;5.93;;;12.70;54.70;;;;;;4996542;28;20187;-75
2023/02/08 08:51:19;;;;;;;8.00;6.38;;;13.30;52.80;;;;;;5015644;28;20658;-75
2023/02/08 08:53:45;;;;;;;10.65;6.85;;;13.60;49.40;;;;;;5007101;28;20646;-75
2023/02/08 08:56:11;;;;;;;11.27;7.13;;;13.90;50.60;;;;;;5017743;28;20571;-75
2023/02/08 08:58:36;;;;;;;10.63;7.20;;;14.00;46.90;;;;;;5013812;28;20189;-75
2023/02/08 09:01:02;;;;;;;10.82;6.82;;;14.20;47.70;;;;;;5011444;28;20813;-75
2023/02/08 09:03:28;;;;;;;11.38;6.45;;;14.60;48.30;;;;;;5007361;28;20185;-76
2023/02/08 09:05:54;;;;;;;11.15;6.88;;;15.00;49.40;;;;;;5009828;28;20213;-76
2023/02/08 09:08:20;;;;;;;12.20;7.22;;;15.20;46.00;;;;;;5007898;28;20823;-75
2023/02/08 09:10:45;;;;;;;8.63;6.55;;;14.90;45.70;;;;;;5005628;28;20180;-75
2023/02/08 09:13:18;;;;;;;10.82;6.43;;;15.00;47.70;;;;;;5005147;28;20209;-75
2023/02/08 09:15:44;;;;;;;9.80;6.13;;;15.30;47.10;;;;;;5006275;28;20200;-75
2023/02/08 09:18:10;;;;;;;9.13;6.35;;;15.40;44.10;;;;;;5022220;28;20189;-75
2023/02/08 09:20:39;;;;;;;11.15;6.95;;;14.80;44.00;;;;;;5011499;28;20740;-75
2023/02/08 09:23:04;;;;;;;11.00;5.82;;;14.10;44.00;;;;;;5008526;28;20238;-74
2023/02/08 09:25:32;;;;;;;5.65;4.63;;;13.40;46.40;;;;;;5006451;28;20633;-75
2023/02/08 09:27:57;;;;;;;7.20;5.43;;;12.70;46.80;;;;;;5008456;28;20180;-75
2023/02/08 09:30:23;;;;;;;10.30;5.38;;;12.50;47.60;;;;;;5007105;28;20659;-75
2023/02/08 09:32:49;;;;;;;6.03;5.25;;;12.70;48.50;;;;;;5012056;28;20188;-76
2023/02/08 09:35:15;;;;;;;9.15;5.97;;;13.10;48.80;;;;;;5015285;28;20184;-76
2023/02/08 09:37:40;;;;;;;8.05;5.43;;;13.60;48.30;;;;;;5007199;28;20188;-76
2023/02/08 09:40:06;;;;;;;7.57;5.03;;;13.90;46.20;;;;;;5010618;28;20180;-76
2023/02/08 09:42:42;;;;;;;5.53;4.60;;;14.10;46.40;;;;;;5003267;28;20729;-75
2023/02/08 09:45:29;;;;;;;7.40;5.15;;;14.50;47.40;;;;;;5007968;28;20242;-76
2023/02/08 09:48:17;;;;;;;7.97;5.28;;;14.90;46.70;;;;;;5008532;28;20192;-76
2023/02/08 09:50:59;;;;;;;6.38;4.65;;;15.30;45.80;;;;;;5004672;28;20275;-76
2023/02/08 09:53:43;;;;;;;6.30;5.28;;;15.10;43.60;;;;;;5022585;28;20203;-77
2023/02/08 09:56:13;;;;;;;5.30;4.78;;;15.00;44.20;;;;;;5025555;28;20183;-76
2023/02/08 09:58:45;;;;;;;8.18;4.85;;;14.70;44.10;;;;;;5016097;28;20244;-76
2023/02/08 10:01:24;;;;;;;5.40;4.22;;;14.60;45.30;;;;;;5017126;28;20181;-77
2023/02/08 10:03:55;;;;;;;5.20;4.22;;;14.80;43.30;;;;;;5005752;28;20377;-77
2023/02/08 10:06:22;;;;;;;4.20;3.90;;;14.40;44.70;;;;;;5030264;28;20306;-76
2023/02/08 10:08:51;;;;;;;4.93;4.47;;;14.70;45.90;;;;;;5035379;28;20216;-76
2023/02/08 10:11:33;;;;;;;6.88;5.07;;;15.00;45.40;;;;;;5020478;28;20176;-76
2023/02/08 10:13:59;;;;;;;4.97;4.47;;;15.40;44.60;;;;;;5013121;28;20185;-76
2023/02/08 10:16:41;;;;;;;6.88;4.47;;;16.10;42.80;;;;;;5017654;28;20259;-76
2023/02/08 10:19:32;;;;;;;9.00;5.30;;;16.80;44.00;;;;;;5020120;28;20215;-76
2023/02/08 10:22:19;;;;;;;5.28;4.38;;;17.20;42.90;;;;;;5019010;28;20176;-76
2023/02/08 10:24:46;;;;;;;6.97;5.05;;;17.60;42.30;;;;;;5020279;28;20252;-76
2023/02/08 10:27:26;;;;;;;6.20;4.95;;;17.50;42.40;;;;;;5009335;28;20239;-76
2023/02/08 10:30:03;;;;;;;6.65;5.28;;;17.70;42.10;;;;;;5014662;28;20215;-76
2023/02/08 10:32:49;;;;;;;4.28;3.83;;;18.10;43.80;;;;;;5028630;28;20188;-76
2023/02/08 10:35:27;;;;;;;5.07;4.68;;;18.50;42.80;;;;;;5036850;28;20178;-77
2023/02/08 10:37:55;;;;;;;8.15;5.13;;;18.80;41.60;;;;;;5024759;28;20184;-77
2023/02/08 10:40:31;;;;;;;5.32;4.80;;;18.60;39.10;;;;;;5025426;28;20779;-76
2023/02/08 10:43:20;;;;;;;5.90;4.80;;;18.10;41.80;;;;;;5019172;28;20184;-76
2023/02/08 10:46:02;;;;;;;5.30;4.68;;;18.20;42.00;;;;;;4998188;28;20225;-76
2023/02/08 10:49:02;;;;;;;7.50;3.65;;;17.80;40.50;;;;;;5000807;28;20197;-76
2023/02/08 10:51:29;;;;;;;4.15;3.83;;;18.00;40.80;;;;;;4994768;28;20213;-76
2023/02/08 10:53:56;;;;;;;4.90;4.40;;;18.20;40.40;;;;;;4994658;28;20185;-76
2023/02/08 10:56:44;;;;;;;4.80;4.22;;;18.00;41.10;;;;;;4993689;28;20272;-76
2023/02/08 10:59:21;;;;;;;4.70;4.13;;;17.10;41.00;;;;;;4992463;28;20186;-76
2023/02/08 11:01:48;;;;;;;10.88;4.25;;;16.00;41.20;;;;;;4976633;28;20797;-76
2023/02/08 11:04:15;;;;;;;4.35;3.95;;;14.70;41.50;;;;;;4993474;28;20208;-76
2023/02/08 11:06:43;;;;;;;3.97;3.60;;;13.80;42.80;;;;;;4991343;28;20221;-76
2023/02/08 11:09:24;;;;;;;4.65;4.07;;;12.80;44.60;;;;;;4989206;28;20587;-75
2023/02/08 11:11:51;;;;;;;4.90;3.40;;;11.70;44.60;;;;;;4987044;28;20204;-75
2023/02/08 11:14:23;;;;;;;4.25;3.85;;;11.00;46.20;;;;;;4986898;28;20192;-76
2023/02/08 11:16:51;;;;;;;5.28;3.88;;;10.80;47.40;;;;;;4989305;28;20212;-75
2023/02/08 11:19:32;;;;;;;4.15;3.80;;;10.40;47.20;;;;;;4986222;28;20265;-76
2023/02/08 11:21:58;;;;;;;4.03;3.78;;;9.80;47.40;;;;;;4984694;28;20717;-74
2023/02/08 11:24:34;;;;;;;4.10;3.72;;;9.10;48.30;;;;;;5003689;28;20177;-75
2023/02/08 11:27:01;;;;;;;4.47;3.88;;;8.30;50.00;;;;;;5007963;28;20212;-75
2023/02/08 11:29:29;;;;;;;5.45;3.58;;;7.60;50.90;;;;;;5009019;28;20284;-76
2023/02/08 11:31:59;;;;;;;6.50;3.97;;;7.10;51.60;;;;;;5008917;28;20212;-76
2023/02/08 11:34:32;;;;;;;3.83;3.53;;;6.40;53.00;;;;;;5012246;28;20662;-75
2023/02/08 11:37:12;;;;;;;4.15;3.38;;;6.10;53.70;;;;;;5012822;28;20184;-76
2023/02/08 11:40:04;;;;;;;5.97;3.27;;;5.80;54.70;;;;;;5008091;28;20177;-74
2023/02/08 11:42:36;;;;;;;4.97;3.87;;;5.50;54.80;;;;;;5008476;28;20200;-75
2023/02/08 11:45:03;;;;;;;3.50;2.77;;;5.00;55.70;;;;;;5009385;28;20250;-75
2023/02/08 11:47:34;;;;;;;5.50;4.17;;;4.70;56.10;;;;;;5008550;28;20203;-75
2023/02/08 11:50:39;;;;;;;3.13;2.70;;;4.30;57.10;;;;;;5023337;28;20188;-75
2023/02/08 11:53:27;;;;;;;2.23;2.13;;;3.90;57.60;;;;;;5005653;28;20661;-75
2023/02/08 11:56:20;;;;;;;2.67;2.40;;;3.60;58.40;;;;;;5020032;28;20271;-75
2023/02/08 11:59:17;;;;;;;2.30;2.03;;;3.40;58.70;;;;;;4946293;28;20214;-75
2023/02/08 12:01:43;;;;;;;7.67;2.70;;;3.30;59.40;;;;;;4946989;28;20265;-75
2023/02/08 12:04:12;;;;;;;2.53;2.03;;;3.20;59.30;;;;;;4946009;28;20238;-75
2023/02/08 12:07:04;;;;;;;2.30;2.03;;;3.10;59.80;;;;;;4945815;28;20229;-75
2023/02/08 12:09:32;;;;;;;3.57;1.73;;;3.00;60.30;;;;;;4944874;29;20354;-75
2023/02/08 12:12:24;;;;;;;1.93;1.80;;;3.00;60.80;;;;;;4945754;29;20187;-75
2023/02/08 12:15:10;;;;;;;5.30;2.50;;;2.90;60.70;;;;;;4945344;28;20235;-75
2023/02/08 12:17:45;;;;;;;2.53;1.83;;;2.90;60.90;;;;;;4929299;29;20271;-75
2023/02/08 12:20:32;;;;;;;2.53;2.10;;;2.80;60.90;;;;;;4943017;28;20586;-75
2023/02/08 12:23:20;;;;;;;2.57;2.07;;;2.80;60.90;;;;;;4939476;28;20757;-75
2023/02/08 12:26:12;;;;;;;2.53;2.30;;;2.80;61.20;;;;;;4934441;29;20218;-76
2023/02/08 12:29:26;;;;;;;2.07;1.80;;;2.90;61.00;;;;;;4947239;29;20191;-76
2023/02/08 12:31:54;;;;;;;2.00;1.80;;;2.90;60.30;;;;;;4872095;29;20194;-75
2023/02/08 12:34:41;;;;;;;2.33;2.13;;;3.00;60.30;;;;;;4871673;29;20186;-75
2023/02/08 12:43:13;;;;;;;2.60;1.60;;;2.90;60.10;;;;;;4907145;29;20199;-75
2023/02/08 12:45:47;;;;;;;1.70;1.27;;;2.80;59.70;;;;;;4910796;29;20215;-75
2023/02/08 12:48:50;;;;;;;1.10;1.10;;;2.70;59.80;;;;;;4905070;29;20618;-76
2023/02/08 12:51:15;;;;;;;1.37;1.27;;;2.60;58.90;;;;;;4916180;29;20199;-75
2023/02/08 12:53:53;;;;;;;1.30;1.20;;;2.50;58.80;;;;;;4909249;29;20248;-75
2023/02/08 12:56:24;;;;;;;1.90;1.33;;;2.40;58.90;;;;;;4906978;29;20193;-76
2023/02/08 12:58:53;;;;;;;2.37;1.30;;;2.30;59.10;;;;;;4908624;29;20208;-75
2023/02/08 13:01:40;;;;;;;0.93;0.93;;;2.30;59.30;;;;;;4908241;29;20200;-75
2023/02/08 13:04:26;;;;;;;1.00;1.00;;;2.30;59.50;;;;;;4913982;29;20197;-75
2023/02/08 13:06:58;;;;;;;1.87;1.03;;;2.20;59.90;;;;;;4906464;29;20243;-75
2023/02/08 13:09:32;;;;;;;2.20;1.40;;;2.10;59.50;;;;;;4995524;28;20200;-75
2023/02/08 13:12:13;;;;;;;1.23;1.13;;;2.10;59.80;;;;;;5004091;28;20184;-76
2023/02/08 13:14:54;;;;;;;1.00;1.00;;;2.10;59.80;;;;;;5009410;28;20255;-75